sensor_id;sensor_type;location;lat;lon;timestamp;pressure;altitude;pressure_sealevel;temperature;humidity
63343;BME280;49465;57.664;39.686;2023-04-23T00:00:48;100102.16;;;7.10;42.62
63343;BME280;49465;57.664;39.686;2023-04-23T00:03:23;100098.88;;;7.07;42.30
63343;BME280;49465;57.664;39.686;2023-04-23T00:05:52;100103.41;;;7.84;37.75
63343;BME280;49465;57.664;39.686;2023-04-23T00:08:31;100105.69;;;7.09;41.60
63343;BME280;49465;57.664;39.686;2023-04-23T00:11:10;100109.00;;;6.96;42.35
63343;BME280;49465;57.664;39.686;2023-04-23T00:13:42;100104.34;;;6.69;41.79
63343;BME280;49465;57.664;39.686;2023-04-23T00:16:18;100101.94;;;6.64;42.56
63343;BME280;49465;57.664;39.686;2023-04-23T00:18:47;100110.06;;;6.58;42.88
63343;BME280;49465;57.664;39.686;2023-04-23T00:21:17;100107.63;;;6.55;43.08
63343;BME280;49465;57.664;39.686;2023-04-23T00:23:46;100114.31;;;6.61;44.15
63343;BME280;49465;57.664;39.686;2023-04-23T00:26:12;100105.63;;;6.43;43.85
63343;BME280;49465;57.664;39.686;2023-04-23T00:28:39;100099.75;;;6.39;43.54
63343;BME280;49465;57.664;39.686;2023-04-23T00:31:05;100109.41;;;6.37;43.86
63343;BME280;49465;57.664;39.686;2023-04-23T00:33:40;100111.84;;;6.58;44.08
63343;BME280;49465;57.664;39.686;2023-04-23T00:36:11;100109.00;;;6.45;44.95
63343;BME280;49465;57.664;39.686;2023-04-23T00:38:45;100108.84;;;6.48;44.26
63343;BME280;49465;57.664;39.686;2023-04-23T00:41:26;100111.84;;;6.58;43.54
63343;BME280;49465;57.664;39.686;2023-04-23T00:43:56;100108.53;;;6.37;44.69
63343;BME280;49465;57.664;39.686;2023-04-23T00:46:29;100111.13;;;6.19;44.51
63343;BME280;49465;57.664;39.686;2023-04-23T00:48:56;100106.22;;;6.13;44.31
63343;BME280;49465;57.664;39.686;2023-04-23T00:51:25;100111.75;;;6.07;45.07
63343;BME280;49465;57.664;39.686;2023-04-23T00:54:01;100116.53;;;6.33;44.98
63343;BME280;49465;57.664;39.686;2023-04-23T00:56:28;100117.25;;;6.01;44.40
63343;BME280;49465;57.664;39.686;2023-04-23T00:58:56;100124.22;;;6.00;45.25
63343;BME280;49465;57.664;39.686;2023-04-23T01:01:22;100115.03;;;5.91;45.24
63343;BME280;49465;57.664;39.686;2023-04-23T01:03:50;100121.03;;;5.93;45.14
63343;BME280;49465;57.664;39.686;2023-04-23T01:06:17;100123.97;;;5.86;45.67
63343;BME280;49465;57.664;39.686;2023-04-23T01:08:44;100118.94;;;5.83;45.04
63343;BME280;49465;57.664;39.686;2023-04-23T01:11:15;100125.44;;;5.91;45.68
63343;BME280;49465;57.664;39.686;2023-04-23T01:13:42;100127.09;;;5.75;45.90
63343;BME280;49465;57.664;39.686;2023-04-23T01:16:09;100122.19;;;5.69;46.19
63343;BME280;49465;57.664;39.686;2023-04-23T01:18:36;100131.13;;;5.63;45.37
63343;BME280;49465;57.664;39.686;2023-04-23T01:21:11;100123.81;;;5.71;46.12
63343;BME280;49465;57.664;39.686;2023-04-23T01:23:38;100127.03;;;5.58;45.43
63343;BME280;49465;57.664;39.686;2023-04-23T01:26:07;100129.00;;;5.52;45.55
63343;BME280;49465;57.664;39.686;2023-04-23T01:28:41;100137.16;;;5.64;45.99
63343;BME280;49465;57.664;39.686;2023-04-23T01:31:15;100135.56;;;5.61;46.32
63343;BME280;49465;57.664;39.686;2023-04-23T01:33:48;100132.31;;;5.56;46.81
63343;BME280;49465;57.664;39.686;2023-04-23T01:36:23;100130.50;;;5.39;45.29
63343;BME280;49465;57.664;39.686;2023-04-23T01:38:55;100135.25;;;5.48;47.19
63343;BME280;49465;57.664;39.686;2023-04-23T01:41:28;100136.25;;;5.46;46.75
63343;BME280;49465;57.664;39.686;2023-04-23T01:44:02;100134.72;;;5.42;46.44
63343;BME280;49465;57.664;39.686;2023-04-23T01:46:31;100133.63;;;5.27;45.86
63343;BME280;49465;57.664;39.686;2023-04-23T01:49:00;100136.44;;;5.22;45.97
63343;BME280;49465;57.664;39.686;2023-04-23T01:51:32;100141.09;;;5.34;47.46
63343;BME280;49465;57.664;39.686;2023-04-23T01:53:59;100138.41;;;5.17;46.18
63343;BME280;49465;57.664;39.686;2023-04-23T01:56:30;100134.97;;;5.17;46.46
63343;BME280;49465;57.664;39.686;2023-04-23T01:59:03;100130.88;;;5.11;46.14
63343;BME280;49465;57.664;39.686;2023-04-23T02:01:45;100136.97;;;5.49;45.82
63343;BME280;49465;57.664;39.686;2023-04-23T02:04:15;100138.22;;;5.22;46.94
63343;BME280;49465;57.664;39.686;2023-04-23T02:06:49;100141.72;;;5.21;47.10
63343;BME280;49465;57.664;39.686;2023-04-23T02:09:16;100142.66;;;4.99;46.67
63343;BME280;49465;57.664;39.686;2023-04-23T02:11:48;100145.41;;;4.96;46.57
63343;BME280;49465;57.664;39.686;2023-04-23T02:14:16;100144.69;;;4.92;47.27
63343;BME280;49465;57.664;39.686;2023-04-23T02:16:45;100143.81;;;4.92;47.26
63343;BME280;49465;57.664;39.686;2023-04-23T02:19:15;100146.81;;;5.03;47.21
63343;BME280;49465;57.664;39.686;2023-04-23T02:21:47;100150.38;;;5.01;47.96
63343;BME280;49465;57.664;39.686;2023-04-23T02:24:20;100153.03;;;4.99;47.85
63343;BME280;49465;57.664;39.686;2023-04-23T02:26:51;100152.88;;;4.83;46.95
63343;BME280;49465;57.664;39.686;2023-04-23T02:29:22;100153.84;;;4.81;47.54
63343;BME280;49465;57.664;39.686;2023-04-23T02:31:48;100160.88;;;4.79;47.97
63343;BME280;49465;57.664;39.686;2023-04-23T02:34:17;100161.31;;;4.88;47.61
63343;BME280;49465;57.664;39.686;2023-04-23T02:36:49;100156.56;;;4.78;48.26
63343;BME280;49465;57.664;39.686;2023-04-23T02:39:22;100169.91;;;4.90;49.09
63343;BME280;49465;57.664;39.686;2023-04-23T02:41:51;100168.00;;;4.73;48.66
63343;BME280;49465;57.664;39.686;2023-04-23T02:44:23;100177.56;;;4.73;48.73
63343;BME280;49465;57.664;39.686;2023-04-23T02:46:56;100165.78;;;4.85;49.11
63343;BME280;49465;57.664;39.686;2023-04-23T02:49:25;100167.28;;;4.70;48.17
63343;BME280;49465;57.664;39.686;2023-04-23T02:51:54;100169.03;;;4.69;48.83
63343;BME280;49465;57.664;39.686;2023-04-23T02:54:20;100171.69;;;4.68;48.61
63343;BME280;49465;57.664;39.686;2023-04-23T02:56:47;100172.53;;;4.68;49.41
63343;BME280;49465;57.664;39.686;2023-04-23T02:59:17;100179.44;;;4.69;49.00
63343;BME280;49465;57.664;39.686;2023-04-23T03:01:45;100174.19;;;4.71;49.52
63343;BME280;49465;57.664;39.686;2023-04-23T03:04:18;100179.31;;;4.72;49.13
63343;BME280;49465;57.664;39.686;2023-04-23T03:06:46;100181.97;;;4.71;50.01
63343;BME280;49465;57.664;39.686;2023-04-23T03:09:18;100186.69;;;4.82;50.80
63343;BME280;49465;57.664;39.686;2023-04-23T03:11:47;100189.63;;;4.74;50.60
63343;BME280;49465;57.664;39.686;2023-04-23T03:14:27;100191.00;;;4.83;51.55
63343;BME280;49465;57.664;39.686;2023-04-23T03:17:01;100202.28;;;4.82;52.52
63343;BME280;49465;57.664;39.686;2023-04-23T03:19:35;100200.72;;;4.78;52.44
63343;BME280;49465;57.664;39.686;2023-04-23T03:22:07;100198.59;;;4.67;53.39
63343;BME280;49465;57.664;39.686;2023-04-23T03:24:42;100200.22;;;4.69;51.77
63343;BME280;49465;57.664;39.686;2023-04-23T03:27:19;100202.09;;;4.86;54.06
63343;BME280;49465;57.664;39.686;2023-04-23T03:29:48;100205.03;;;4.79;52.75
63343;BME280;49465;57.664;39.686;2023-04-23T03:32:15;100208.16;;;4.87;51.95
63343;BME280;49465;57.664;39.686;2023-04-23T03:34:51;100212.38;;;5.10;53.53
63343;BME280;49465;57.664;39.686;2023-04-23T03:37:23;100220.22;;;5.08;51.37
63343;BME280;49465;57.664;39.686;2023-04-23T03:40:06;100217.41;;;5.13;51.75
63343;BME280;49465;57.664;39.686;2023-04-23T03:42:43;100226.59;;;5.22;52.60
63343;BME280;49465;57.664;39.686;2023-04-23T03:45:14;100219.34;;;5.28;51.60
63343;BME280;49465;57.664;39.686;2023-04-23T03:47:47;100221.56;;;5.38;52.25
63343;BME280;49465;57.664;39.686;2023-04-23T03:50:21;100229.66;;;5.50;52.73
63343;BME280;49465;57.664;39.686;2023-04-23T03:52:53;100227.44;;;5.62;51.78
63343;BME280;49465;57.664;39.686;2023-04-23T03:55:24;100231.16;;;5.75;52.27
63343;BME280;49465;57.664;39.686;2023-04-23T03:57:57;100218.09;;;5.77;51.40
63343;BME280;49465;57.664;39.686;2023-04-23T04:00:29;100223.44;;;5.92;51.29
63343;BME280;49465;57.664;39.686;2023-04-23T04:02:56;100218.47;;;6.07;51.38
63343;BME280;49465;57.664;39.686;2023-04-23T04:05:34;100224.66;;;6.41;51.02
63343;BME280;49465;57.664;39.686;2023-04-23T04:08:03;100227.84;;;6.47;51.05
63343;BME280;49465;57.664;39.686;2023-04-23T04:10:32;100225.16;;;6.66;50.56
63343;BME280;49465;57.664;39.686;2023-04-23T04:13:04;100228.94;;;6.96;50.70
63343;BME280;49465;57.664;39.686;2023-04-23T04:15:33;100235.38;;;7.06;50.64
63343;BME280;49465;57.664;39.686;2023-04-23T04:18:06;100231.75;;;7.26;49.98
63343;BME280;49465;57.664;39.686;2023-04-23T04:20:39;100229.63;;;7.50;50.96
63343;BME280;49465;57.664;39.686;2023-04-23T04:23:14;100244.00;;;7.90;50.41
63343;BME280;49465;57.664;39.686;2023-04-23T04:25:49;100242.50;;;8.18;50.51
63343;BME280;49465;57.664;39.686;2023-04-23T04:28:19;100245.03;;;8.36;49.24
63343;BME280;49465;57.664;39.686;2023-04-23T04:31:00;100239.19;;;8.78;49.02
63343;BME280;49465;57.664;39.686;2023-04-23T04:33:35;100240.31;;;8.88;48.36
63343;BME280;49465;57.664;39.686;2023-04-23T04:36:13;100245.25;;;9.23;47.76
63343;BME280;49465;57.664;39.686;2023-04-23T04:38:39;100244.44;;;9.37;47.55
63343;BME280;49465;57.664;39.686;2023-04-23T04:41:32;100248.19;;;9.76;46.94
63343;BME280;49465;57.664;39.686;2023-04-23T04:44:02;100238.81;;;9.86;47.56
63343;BME280;49465;57.664;39.686;2023-04-23T04:46:38;100241.56;;;10.12;46.97
63343;BME280;49465;57.664;39.686;2023-04-23T04:49:14;100244.63;;;10.60;45.64
63343;BME280;49465;57.664;39.686;2023-04-23T04:51:49;100256.22;;;10.83;46.47
63343;BME280;49465;57.664;39.686;2023-04-23T04:54:19;100247.91;;;11.04;46.17
63343;BME280;49465;57.664;39.686;2023-04-23T04:56:49;100250.03;;;11.37;46.08
63343;BME280;49465;57.664;39.686;2023-04-23T04:59:21;100260.19;;;11.67;45.43
63343;BME280;49465;57.664;39.686;2023-04-23T05:01:53;100260.91;;;11.95;45.85
63343;BME280;49465;57.664;39.686;2023-04-23T05:04:23;100261.19;;;12.16;45.16
63343;BME280;49465;57.664;39.686;2023-04-23T05:06:50;100262.16;;;12.39;45.10
63343;BME280;49465;57.664;39.686;2023-04-23T05:09:18;100261.94;;;12.66;44.34
63343;BME280;49465;57.664;39.686;2023-04-23T05:11:48;100261.50;;;13.08;43.89
63343;BME280;49465;57.664;39.686;2023-04-23T05:14:29;100273.97;;;13.29;43.62
63343;BME280;49465;57.664;39.686;2023-04-23T05:16:56;100263.25;;;13.54;43.38
63343;BME280;49465;57.664;39.686;2023-04-23T05:19:22;100266.53;;;13.80;43.00
63343;BME280;49465;57.664;39.686;2023-04-23T05:21:55;100267.69;;;14.21;42.20
63343;BME280;49465;57.664;39.686;2023-04-23T05:24:27;100275.53;;;14.44;41.69
63343;BME280;49465;57.664;39.686;2023-04-23T05:26:57;100276.34;;;14.67;41.26
63343;BME280;49465;57.664;39.686;2023-04-23T05:29:40;100271.69;;;14.92;40.93
63343;BME280;49465;57.664;39.686;2023-04-23T05:32:10;100274.91;;;15.16;40.63
63343;BME280;49465;57.664;39.686;2023-04-23T05:34:40;100269.97;;;15.23;40.84
63343;BME280;49465;57.664;39.686;2023-04-23T05:37:09;100266.63;;;15.52;39.91
63343;BME280;49465;57.664;39.686;2023-04-23T05:39:39;100267.63;;;15.81;39.61
63343;BME280;49465;57.664;39.686;2023-04-23T05:42:20;100272.09;;;16.21;39.14
63343;BME280;49465;57.664;39.686;2023-04-23T05:44:58;100267.91;;;16.29;38.05
63343;BME280;49465;57.664;39.686;2023-04-23T05:47:37;100269.22;;;16.54;38.87
63343;BME280;49465;57.664;39.686;2023-04-23T05:50:23;100272.47;;;16.96;38.52
63343;BME280;49465;57.664;39.686;2023-04-23T05:53:07;100270.25;;;17.02;37.68
63343;BME280;49465;57.664;39.686;2023-04-23T05:55:39;100263.47;;;17.36;37.61
63343;BME280;49465;57.664;39.686;2023-04-23T05:58:13;100275.00;;;17.65;37.33
63343;BME280;49465;57.664;39.686;2023-04-23T06:00:49;100276.03;;;17.82;37.00
63343;BME280;49465;57.664;39.686;2023-04-23T06:03:21;100269.47;;;17.95;36.64
63343;BME280;49465;57.664;39.686;2023-04-23T06:05:47;100276.56;;;18.23;35.43
63343;BME280;49465;57.664;39.686;2023-04-23T06:08:29;100274.09;;;18.57;35.97
63343;BME280;49465;57.664;39.686;2023-04-23T06:10:58;100282.69;;;18.69;35.06
63343;BME280;49465;57.664;39.686;2023-04-23T06:13:32;100282.25;;;19.09;35.00
63343;BME280;49465;57.664;39.686;2023-04-23T06:16:07;100287.72;;;19.34;34.84
63343;BME280;49465;57.664;39.686;2023-04-23T06:18:41;100279.53;;;19.53;34.49
63343;BME280;49465;57.664;39.686;2023-04-23T06:21:08;100285.88;;;19.79;34.34
63343;BME280;49465;57.664;39.686;2023-04-23T06:23:37;100287.00;;;20.10;34.29
63343;BME280;49465;57.664;39.686;2023-04-23T06:26:09;100282.06;;;20.24;33.05
63343;BME280;49465;57.664;39.686;2023-04-23T06:28:40;100273.44;;;20.46;32.06
63343;BME280;49465;57.664;39.686;2023-04-23T06:31:12;100280.03;;;20.60;32.34
63343;BME280;49465;57.664;39.686;2023-04-23T06:33:43;100280.03;;;20.85;31.98
63343;BME280;49465;57.664;39.686;2023-04-23T06:36:18;100280.88;;;21.10;32.35
63343;BME280;49465;57.664;39.686;2023-04-23T06:38:45;100280.69;;;21.11;31.12
63343;BME280;49465;57.664;39.686;2023-04-23T06:41:24;100274.16;;;21.30;31.90
63343;BME280;49465;57.664;39.686;2023-04-23T06:43:55;100283.84;;;21.23;29.80
63343;BME280;49465;57.664;39.686;2023-04-23T06:46:27;100290.00;;;21.32;31.03
63343;BME280;49465;57.664;39.686;2023-04-23T06:48:56;100275.16;;;21.38;30.51
63343;BME280;49465;57.664;39.686;2023-04-23T06:51:28;100285.16;;;21.36;29.89
63343;BME280;49465;57.664;39.686;2023-04-23T06:54:00;100281.78;;;21.75;30.14
63343;BME280;49465;57.664;39.686;2023-04-23T06:56:32;100278.66;;;22.02;29.80
63343;BME280;49465;57.664;39.686;2023-04-23T06:59:44;100276.31;;;22.07;29.17
63343;BME280;49465;57.664;39.686;2023-04-23T07:02:09;100283.84;;;22.66;30.70
63343;BME280;49465;57.664;39.686;2023-04-23T07:04:38;100277.94;;;22.48;28.46
63343;BME280;49465;57.664;39.686;2023-04-23T07:07:08;100284.84;;;22.65;29.19
63343;BME280;49465;57.664;39.686;2023-04-23T07:09:37;100276.59;;;22.52;28.48
63343;BME280;49465;57.664;39.686;2023-04-23T07:12:06;100279.22;;;22.60;28.25
63343;BME280;49465;57.664;39.686;2023-04-23T07:14:35;100282.31;;;22.72;28.07
63343;BME280;49465;57.664;39.686;2023-04-23T07:17:12;100284.59;;;22.98;28.47
63343;BME280;49465;57.664;39.686;2023-04-23T07:19:39;100281.72;;;23.08;27.54
63343;BME280;49465;57.664;39.686;2023-04-23T07:22:19;100279.34;;;23.13;27.43
63343;BME280;49465;57.664;39.686;2023-04-23T07:24:54;100284.69;;;23.28;27.72
63343;BME280;49465;57.664;39.686;2023-04-23T07:27:26;100286.25;;;23.22;26.70
63343;BME280;49465;57.664;39.686;2023-04-23T07:29:58;100300.06;;;23.49;27.63
63343;BME280;49465;57.664;39.686;2023-04-23T07:32:33;100285.09;;;23.40;27.11
63343;BME280;49465;57.664;39.686;2023-04-23T07:35:05;100293.56;;;23.28;26.71
63343;BME280;49465;57.664;39.686;2023-04-23T07:37:37;100285.34;;;23.30;26.55
63343;BME280;49465;57.664;39.686;2023-04-23T07:40:07;100274.38;;;23.40;26.16
63343;BME280;49465;57.664;39.686;2023-04-23T07:42:45;100273.47;;;23.47;26.29
63343;BME280;49465;57.664;39.686;2023-04-23T07:45:12;100273.75;;;23.23;25.84
63343;BME280;49465;57.664;39.686;2023-04-23T07:47:41;100280.78;;;23.39;25.77
63343;BME280;49465;57.664;39.686;2023-04-23T07:50:12;100284.03;;;23.64;25.95
63343;BME280;49465;57.664;39.686;2023-04-23T07:52:43;100275.78;;;23.65;25.24
63343;BME280;49465;57.664;39.686;2023-04-23T07:55:18;100276.81;;;23.64;25.09
63343;BME280;49465;57.664;39.686;2023-04-23T07:57:49;100284.19;;;23.62;25.74
63343;BME280;49465;57.664;39.686;2023-04-23T08:00:27;100276.34;;;23.61;26.05
63343;BME280;49465;57.664;39.686;2023-04-23T08:03:02;100289.19;;;23.51;25.01
63343;BME280;49465;57.664;39.686;2023-04-23T08:05:31;100287.69;;;23.63;26.01
63343;BME280;49465;57.664;39.686;2023-04-23T08:08:06;100293.88;;;23.48;25.49
63343;BME280;49465;57.664;39.686;2023-04-23T08:10:38;100287.56;;;23.26;25.00
63343;BME280;49465;57.664;39.686;2023-04-23T08:13:16;100287.25;;;23.44;25.54
63343;BME280;49465;57.664;39.686;2023-04-23T08:15:50;100291.22;;;23.48;25.68
63343;BME280;49465;57.664;39.686;2023-04-23T08:18:28;100290.19;;;23.49;24.54
63343;BME280;49465;57.664;39.686;2023-04-23T08:21:00;100280.22;;;23.43;25.17
63343;BME280;49465;57.664;39.686;2023-04-23T08:23:40;100279.09;;;23.67;25.55
63343;BME280;49465;57.664;39.686;2023-04-23T08:26:09;100280.41;;;23.57;25.02
63343;BME280;49465;57.664;39.686;2023-04-23T08:28:38;100269.69;;;23.42;24.84
63343;BME280;49465;57.664;39.686;2023-04-23T08:31:09;100280.78;;;23.68;25.06
63343;BME280;49465;57.664;39.686;2023-04-23T08:33:39;100279.16;;;23.82;25.09
63343;BME280;49465;57.664;39.686;2023-04-23T08:36:08;100284.00;;;24.08;24.95
63343;BME280;49465;57.664;39.686;2023-04-23T08:38:51;100278.81;;;24.22;24.71
63343;BME280;49465;57.664;39.686;2023-04-23T08:41:22;100287.06;;;24.42;24.90
63343;BME280;49465;57.664;39.686;2023-04-23T08:44:10;100283.09;;;24.01;24.16
63343;BME280;49465;57.664;39.686;2023-04-23T08:46:43;100269.91;;;23.70;23.80
63343;BME280;49465;57.664;39.686;2023-04-23T08:49:14;100269.22;;;23.38;23.98
63343;BME280;49465;57.664;39.686;2023-04-23T08:51:52;100273.66;;;23.46;24.55
63343;BME280;49465;57.664;39.686;2023-04-23T08:54:28;100266.28;;;23.33;24.46
63343;BME280;49465;57.664;39.686;2023-04-23T08:57:05;100267.66;;;23.44;24.42
63343;BME280;49465;57.664;39.686;2023-04-23T08:59:48;100263.22;;;23.36;24.15
63343;BME280;49465;57.664;39.686;2023-04-23T09:02:18;100255.19;;;23.36;24.05
63343;BME280;49465;57.664;39.686;2023-04-23T09:04:48;100253.09;;;23.46;24.38
63343;BME280;49465;57.664;39.686;2023-04-23T09:07:24;100257.69;;;23.67;24.28
63343;BME280;49465;57.664;39.686;2023-04-23T09:09:55;100256.16;;;23.88;23.73
63343;BME280;49465;57.664;39.686;2023-04-23T09:12:28;100245.13;;;24.13;23.55
63343;BME280;49465;57.664;39.686;2023-04-23T09:14:55;100252.16;;;24.14;23.89
63343;BME280;49465;57.664;39.686;2023-04-23T09:17:22;100254.72;;;24.07;23.13
63343;BME280;49465;57.664;39.686;2023-04-23T09:19:57;100259.31;;;24.28;23.75
63343;BME280;49465;57.664;39.686;2023-04-23T09:22:50;100253.63;;;24.74;23.68
63343;BME280;49465;57.664;39.686;2023-04-23T09:25:38;100265.25;;;24.45;23.64
63343;BME280;49465;57.664;39.686;2023-04-23T09:28:07;100262.00;;;24.50;23.24
63343;BME280;49465;57.664;39.686;2023-04-23T09:30:52;100254.78;;;24.65;23.56
63343;BME280;49465;57.664;39.686;2023-04-23T09:33:24;100248.28;;;24.53;22.70
63343;BME280;49465;57.664;39.686;2023-04-23T09:35:53;100243.34;;;24.56;23.29
63343;BME280;49465;57.664;39.686;2023-04-23T09:38:20;100241.97;;;24.45;23.33
63343;BME280;49465;57.664;39.686;2023-04-23T09:40:50;100247.03;;;24.77;23.48
63343;BME280;49465;57.664;39.686;2023-04-23T09:43:29;100249.44;;;24.93;23.44
63343;BME280;49465;57.664;39.686;2023-04-23T09:45:58;100246.44;;;25.03;23.37
63343;BME280;49465;57.664;39.686;2023-04-23T09:48:43;100244.06;;;25.43;23.43
63343;BME280;49465;57.664;39.686;2023-04-23T09:51:16;100239.72;;;25.42;22.56
63343;BME280;49465;57.664;39.686;2023-04-23T09:53:48;100232.44;;;25.36;22.57
63343;BME280;49465;57.664;39.686;2023-04-23T09:56:23;100243.34;;;25.62;22.66
63343;BME280;49465;57.664;39.686;2023-04-23T09:59:08;100226.16;;;25.92;21.65
63343;BME280;49465;57.664;39.686;2023-04-23T10:01:47;100233.13;;;25.86;22.18
63343;BME280;49465;57.664;39.686;2023-04-23T10:04:23;100237.97;;;25.97;22.41
63343;BME280;49465;57.664;39.686;2023-04-23T10:07:01;100236.19;;;26.31;22.79
63343;BME280;49465;57.664;39.686;2023-04-23T10:09:31;100235.28;;;26.04;22.26
63343;BME280;49465;57.664;39.686;2023-04-23T10:12:02;100230.00;;;26.31;22.40
63343;BME280;49465;57.664;39.686;2023-04-23T10:14:43;100228.13;;;26.31;21.99
63343;BME280;49465;57.664;39.686;2023-04-23T10:17:12;100228.75;;;26.27;21.82
63343;BME280;49465;57.664;39.686;2023-04-23T10:19:39;100231.03;;;26.30;21.64
63343;BME280;49465;57.664;39.686;2023-04-23T10:22:10;100219.25;;;26.44;21.95
63343;BME280;49465;57.664;39.686;2023-04-23T10:24:45;100230.63;;;26.46;21.86
63343;BME280;49465;57.664;39.686;2023-04-23T10:27:19;100224.66;;;26.51;21.52
63343;BME280;49465;57.664;39.686;2023-04-23T10:29:53;100215.81;;;26.77;21.88
63343;BME280;49465;57.664;39.686;2023-04-23T10:32:28;100225.34;;;26.66;21.46
63343;BME280;49465;57.664;39.686;2023-04-23T10:34:58;100213.09;;;26.57;21.03
63343;BME280;49465;57.664;39.686;2023-04-23T10:37:27;100213.47;;;26.54;21.21
63343;BME280;49465;57.664;39.686;2023-04-23T10:40:19;100221.19;;;26.70;21.75
63343;BME280;49465;57.664;39.686;2023-04-23T10:42:52;100218.09;;;26.67;21.21
63343;BME280;49465;57.664;39.686;2023-04-23T10:45:21;100215.22;;;26.81;21.19
63343;BME280;49465;57.664;39.686;2023-04-23T10:47:52;100209.38;;;27.05;20.57
63343;BME280;49465;57.664;39.686;2023-04-23T10:50:29;100212.91;;;27.25;20.85
63343;BME280;49465;57.664;39.686;2023-04-23T10:53:02;100206.47;;;27.26;20.95
63343;BME280;49465;57.664;39.686;2023-04-23T10:55:35;100205.84;;;27.24;20.85
63343;BME280;49465;57.664;39.686;2023-04-23T10:58:07;100215.41;;;27.27;21.46
63343;BME280;49465;57.664;39.686;2023-04-23T11:00:44;100203.31;;;27.49;21.22
63343;BME280;49465;57.664;39.686;2023-04-23T11:03:39;100196.84;;;27.64;21.40
63343;BME280;49465;57.664;39.686;2023-04-23T11:06:08;100197.72;;;27.44;20.59
63343;BME280;49465;57.664;39.686;2023-04-23T11:08:41;100188.63;;;27.45;20.52
63343;BME280;49465;57.664;39.686;2023-04-23T11:14:12;100202.28;;;27.44;20.13
63343;BME280;49465;57.664;39.686;2023-04-23T11:16:52;100192.75;;;27.48;20.96
63343;BME280;49465;57.664;39.686;2023-04-23T11:19:28;100208.91;;;27.48;21.22
63343;BME280;49465;57.664;39.686;2023-04-23T11:22:26;100210.03;;;27.78;21.39
63343;BME280;49465;57.664;39.686;2023-04-23T11:25:00;100204.38;;;27.41;20.56
63343;BME280;49465;57.664;39.686;2023-04-23T11:27:41;100206.81;;;27.56;20.71
63343;BME280;49465;57.664;39.686;2023-04-23T11:30:15;100199.53;;;27.64;21.02
63343;BME280;49465;57.664;39.686;2023-04-23T11:32:56;100193.19;;;27.96;21.14
63343;BME280;49465;57.664;39.686;2023-04-23T11:35:27;100186.00;;;27.77;19.31
63343;BME280;49465;57.664;39.686;2023-04-23T11:37:55;100196.00;;;27.70;20.39
63343;BME280;49465;57.664;39.686;2023-04-23T11:40:25;100192.19;;;27.84;20.39
63343;BME280;49465;57.664;39.686;2023-04-23T11:42:55;100196.81;;;27.70;20.11
63343;BME280;49465;57.664;39.686;2023-04-23T11:45:31;100193.84;;;27.92;19.90
63343;BME280;49465;57.664;39.686;2023-04-23T11:48:00;100193.84;;;27.92;20.91
63343;BME280;49465;57.664;39.686;2023-04-23T11:50:31;100195.91;;;27.96;20.32
63343;BME280;49465;57.664;39.686;2023-04-23T11:53:11;100188.47;;;27.92;18.76
63343;BME280;49465;57.664;39.686;2023-04-23T11:55:38;100195.94;;;27.90;20.28
63343;BME280;49465;57.664;39.686;2023-04-23T11:58:09;100183.69;;;27.94;20.55
63343;BME280;49465;57.664;39.686;2023-04-23T12:00:36;100188.69;;;27.84;19.91
63343;BME280;49465;57.664;39.686;2023-04-23T12:03:11;100185.31;;;28.02;20.88
63343;BME280;49465;57.664;39.686;2023-04-23T12:05:43;100187.47;;;28.18;20.41
63343;BME280;49465;57.664;39.686;2023-04-23T12:08:22;100175.53;;;28.39;20.62
63343;BME280;49465;57.664;39.686;2023-04-23T12:11:11;100178.88;;;28.66;20.27
63343;BME280;49465;57.664;39.686;2023-04-23T12:13:39;100170.44;;;28.56;20.24
63343;BME280;49465;57.664;39.686;2023-04-23T12:16:12;100164.66;;;28.77;20.88
63343;BME280;49465;57.664;39.686;2023-04-23T12:18:58;100159.28;;;28.96;20.08
63343;BME280;49465;57.664;39.686;2023-04-23T12:21:34;100172.81;;;28.71;19.55
63343;BME280;49465;57.664;39.686;2023-04-23T12:24:03;100162.16;;;29.01;19.31
63343;BME280;49465;57.664;39.686;2023-04-23T12:26:30;100169.72;;;28.67;20.05
63343;BME280;49465;57.664;39.686;2023-04-23T12:29:07;100180.50;;;28.92;19.97
63343;BME280;49465;57.664;39.686;2023-04-23T12:31:39;100176.69;;;29.00;19.65
63343;BME280;49465;57.664;39.686;2023-04-23T12:34:22;100161.25;;;29.07;20.03
63343;BME280;49465;57.664;39.686;2023-04-23T12:36:58;100165.38;;;29.10;19.23
63343;BME280;49465;57.664;39.686;2023-04-23T12:39:31;100165.00;;;29.06;19.76
63343;BME280;49465;57.664;39.686;2023-04-23T12:42:09;100158.91;;;29.17;19.98
63343;BME280;49465;57.664;39.686;2023-04-23T12:44:46;100158.50;;;29.14;18.99
63343;BME280;49465;57.664;39.686;2023-04-23T12:47:19;100154.38;;;29.11;19.51
63343;BME280;49465;57.664;39.686;2023-04-23T12:49:51;100155.00;;;29.32;19.84
63343;BME280;49465;57.664;39.686;2023-04-23T12:52:25;100160.78;;;28.92;18.68
63343;BME280;49465;57.664;39.686;2023-04-23T12:54:52;100159.72;;;28.74;19.65
63343;BME280;49465;57.664;39.686;2023-04-23T12:57:27;100161.97;;;28.52;19.80
63343;BME280;49465;57.664;39.686;2023-04-23T12:59:53;100169.00;;;28.22;19.61
63343;BME280;49465;57.664;39.686;2023-04-23T13:02:20;100160.03;;;28.28;19.53
63343;BME280;49465;57.664;39.686;2023-04-23T13:04:51;100163.94;;;28.38;19.68
63343;BME280;49465;57.664;39.686;2023-04-23T13:07:24;100154.09;;;28.51;19.55
63343;BME280;49465;57.664;39.686;2023-04-23T13:10:02;100154.81;;;28.65;19.29
63343;BME280;49465;57.664;39.686;2023-04-23T13:12:34;100161.19;;;28.70;19.63
63343;BME280;49465;57.664;39.686;2023-04-23T13:15:07;100165.59;;;28.90;20.05